createdAt,value
2022-11-05T00:00:36.991Z,98.64
2022-11-05T00:03:22.885Z,98.57
2022-11-05T00:06:11.558Z,98.60
2022-11-05T00:08:57.523Z,98.69
2022-11-05T00:11:44.011Z,98.82
2022-11-05T00:14:29.058Z,98.41
2022-11-05T00:16:55.526Z,98.30
2022-11-05T00:19:21.994Z,98.84
2022-11-05T00:22:07.135Z,98.89
2022-11-05T00:24:52.038Z,98.97
2022-11-05T00:27:18.555Z,99.05
2022-11-05T00:29:45.000Z,99.06
2022-11-05T00:32:11.462Z,98.92
2022-11-05T00:34:37.887Z,99.03
2022-11-05T00:37:04.401Z,99.13
2022-11-05T00:39:30.851Z,99.18
2022-11-05T00:42:15.796Z,99.14
2022-11-05T00:45:01.046Z,99.18
2022-11-05T00:47:46.749Z,99.31
2022-11-05T00:50:13.459Z,99.42
2022-11-05T00:52:56.209Z,99.38
2022-11-05T00:55:31.148Z,99.45
2022-11-05T00:57:57.694Z,99.41
2022-11-05T01:00:26.467Z,99.53
2022-11-05T01:02:53.534Z,99.50
2022-11-05T01:05:20.368Z,99.51
2022-11-05T01:07:47.782Z,99.63
2022-11-05T01:10:14.346Z,99.85
2022-11-05T01:12:40.835Z,99.99
2022-11-05T01:15:07.908Z,99.99
2022-11-05T01:17:34.369Z,99.99
2022-11-05T01:20:00.802Z,99.99
2022-11-05T01:22:27.351Z,99.99
2022-11-05T01:24:54.001Z,99.99
2022-11-05T01:27:20.414Z,99.99
2022-11-05T01:29:46.883Z,99.99
2022-11-05T01:32:13.806Z,99.99
2022-11-05T01:34:40.218Z,99.99
2022-11-05T01:37:06.632Z,99.99
2022-11-05T01:39:33.248Z,99.99
2022-11-05T01:42:00.973Z,99.99
2022-11-05T01:44:52.210Z,99.99
2022-11-05T01:47:34.656Z,99.99
2022-11-05T01:50:06.826Z,99.99
2022-11-05T01:52:34.958Z,99.99
2022-11-05T01:55:03.321Z,99.99
2022-11-05T01:57:31.678Z,99.99
2022-11-05T02:00:01.251Z,99.99
2022-11-05T02:02:29.086Z,99.99
2022-11-05T02:05:00.302Z,99.99
2022-11-05T02:07:28.359Z,99.99
2022-11-05T02:10:02.233Z,99.99
2022-11-05T02:12:29.633Z,99.99
2022-11-05T02:14:57.107Z,99.99
2022-11-05T02:17:33.869Z,99.99
2022-11-05T02:20:10.135Z,99.99
2022-11-05T02:22:48.679Z,99.99
2022-11-05T02:25:57.538Z,99.99
2022-11-05T02:28:46.551Z,99.98
2022-11-05T02:31:27.425Z,99.99
2022-11-05T02:34:06.010Z,99.99
2022-11-05T02:37:05.633Z,99.99
2022-11-05T02:39:46.998Z,99.99
2022-11-05T02:42:34.988Z,99.99
2022-11-05T02:45:32.352Z,99.99
2022-11-05T02:48:12.999Z,99.99
2022-11-05T02:51:03.411Z,99.99
2022-11-05T02:53:41.750Z,99.99
2022-11-05T02:56:16.701Z,99.99
2022-11-05T02:58:43.233Z,99.99
2022-11-05T03:01:12.480Z,99.99
2022-11-05T03:03:48.438Z,99.99
2022-11-05T03:06:33.608Z,99.99
2022-11-05T03:09:33.260Z,99.99
2022-11-05T03:12:23.752Z,99.99
2022-11-05T03:15:05.663Z,99.99
2022-11-05T03:17:37.811Z,99.99
2022-11-05T03:20:19.253Z,99.99
2022-11-05T03:23:02.819Z,99.99
2022-11-05T03:25:32.247Z,99.99
2022-11-05T03:28:05.353Z,99.99
2022-11-05T03:30:33.717Z,99.99
2022-11-05T03:33:05.636Z,99.99
2022-11-05T03:35:37.288Z,99.99
2022-11-05T03:38:13.363Z,99.99
2022-11-05T03:40:42.454Z,99.99
2022-11-05T03:43:09.818Z,99.99
2022-11-05T03:45:50.471Z,99.99
2022-11-05T03:48:19.238Z,99.99
2022-11-05T03:50:57.850Z,99.99
2022-11-05T03:53:30.590Z,99.99
2022-11-05T03:56:06.869Z,99.99
2022-11-05T03:58:35.180Z,99.99
2022-11-05T04:01:03.449Z,99.99
2022-11-05T04:03:36.170Z,99.99
2022-11-05T04:06:23.308Z,99.99
2022-11-05T04:09:08.144Z,99.99
2022-11-05T04:11:53.312Z,99.99
2022-11-05T04:14:19.882Z,99.99
2022-11-05T04:17:05.079Z,99.99
2022-11-05T04:19:50.920Z,99.99
2022-11-05T04:22:35.914Z,99.99
2022-11-05T04:25:02.421Z,99.99
2022-11-05T04:27:28.886Z,99.99
2022-11-05T04:30:13.940Z,99.99
2022-11-05T04:32:40.454Z,99.99
2022-11-05T04:35:06.966Z,99.99
2022-11-05T04:37:33.539Z,99.99
2022-11-05T04:40:00.037Z,99.99
2022-11-05T04:42:27.905Z,99.99
2022-11-05T04:44:54.357Z,99.99
2022-11-05T04:47:20.843Z,99.99
2022-11-05T04:49:47.325Z,99.99
2022-11-05T04:52:13.814Z,99.99
2022-11-05T04:54:40.273Z,99.99
2022-11-05T04:57:06.676Z,99.99
2022-11-05T04:59:33.146Z,99.99
2022-11-05T05:02:00.186Z,99.99
2022-11-05T05:04:26.878Z,99.99
2022-11-05T05:06:53.600Z,99.99
2022-11-05T05:09:20.108Z,99.99
2022-11-05T05:11:46.584Z,99.99
2022-11-05T05:14:13.012Z,99.99
2022-11-05T05:16:39.495Z,99.99
2022-11-05T05:19:06.143Z,99.99
2022-11-05T05:21:38.618Z,99.99
2022-11-05T05:24:18.492Z,99.99
2022-11-05T05:26:47.350Z,99.99
2022-11-05T05:29:14.320Z,99.99
2022-11-05T05:31:41.669Z,99.99
2022-11-05T05:34:11.028Z,99.99
2022-11-05T05:36:37.615Z,99.99
2022-11-05T05:39:08.649Z,99.99
2022-11-05T05:41:35.116Z,99.99
2022-11-05T05:44:01.591Z,99.99
2022-11-05T05:46:28.018Z,99.99
2022-11-05T05:48:54.481Z,99.99
2022-11-05T05:51:20.962Z,99.99
2022-11-05T05:53:47.416Z,99.99
2022-11-05T05:56:19.217Z,99.99
2022-11-05T05:58:46.218Z,99.99
2022-11-05T06:01:18.864Z,99.99
2022-11-05T06:03:47.356Z,99.99
2022-11-05T06:06:19.579Z,99.99
2022-11-05T06:08:46.771Z,99.99
2022-11-05T06:11:13.680Z,99.99
2022-11-05T06:13:40.178Z,99.99
2022-11-05T06:16:08.568Z,99.99
2022-11-05T06:18:35.762Z,99.99
2022-11-05T06:21:07.467Z,99.99
2022-11-05T06:23:35.446Z,99.99
2022-11-05T06:26:03.862Z,99.99
2022-11-05T06:28:30.745Z,99.99
2022-11-05T06:30:57.693Z,99.99
2022-11-05T06:33:24.514Z,99.99
2022-11-05T06:35:51.269Z,99.99
2022-11-05T06:38:17.906Z,99.99
2022-11-05T06:40:44.425Z,99.99
2022-11-05T06:43:11.381Z,99.99
2022-11-05T06:45:38.048Z,99.99
2022-11-05T06:48:04.833Z,99.99
2022-11-05T06:50:31.323Z,99.99
2022-11-05T06:53:03.654Z,99.99
2022-11-05T06:55:31.608Z,99.99
2022-11-05T06:57:58.157Z,99.99
2022-11-05T07:00:25.137Z,99.99
2022-11-05T07:02:51.547Z,99.99
2022-11-05T07:05:18.515Z,99.99
2022-11-05T07:07:45.891Z,99.99
2022-11-05T07:10:15.260Z,99.99
2022-11-05T07:12:42.964Z,99.99
2022-11-05T07:15:11.451Z,99.99
2022-11-05T07:17:39.197Z,99.99
2022-11-05T07:20:07.422Z,99.99
2022-11-05T07:22:35.398Z,99.99
2022-11-05T07:25:02.166Z,99.99
2022-11-05T07:27:28.871Z,99.99
2022-11-05T07:29:55.304Z,99.99
2022-11-05T07:32:21.723Z,99.99
2022-11-05T07:34:48.267Z,99.99
2022-11-05T07:37:16.608Z,99.99
2022-11-05T07:39:43.201Z,99.76
2022-11-05T07:42:13.636Z,99.87
2022-11-05T07:44:40.195Z,99.42
2022-11-05T07:47:06.639Z,98.89
2022-11-05T07:49:33.134Z,98.26
2022-11-05T07:51:59.663Z,98.66
2022-11-05T07:54:26.745Z,98.19
2022-11-05T07:56:53.221Z,97.83
2022-11-05T07:59:19.801Z,97.63
2022-11-05T08:01:46.559Z,97.74
2022-11-05T08:04:13.796Z,97.40
2022-11-05T08:06:40.678Z,96.70
2022-11-05T08:09:07.194Z,96.19
2022-11-05T08:11:35.130Z,96.24
2022-11-05T08:14:01.570Z,96.47
2022-11-05T08:16:28.100Z,96.14
2022-11-05T08:18:54.662Z,95.86
2022-11-05T08:21:21.324Z,94.73
2022-11-05T08:23:47.879Z,96.10
2022-11-05T08:26:14.430Z,95.74
2022-11-05T08:28:41.459Z,95.74
2022-11-05T08:31:07.889Z,95.21
2022-11-05T08:33:34.849Z,94.74
2022-11-05T08:36:04.439Z,93.10
2022-11-05T08:38:31.004Z,93.21
2022-11-05T08:40:58.262Z,94.18
2022-11-05T08:43:25.198Z,94.18
2022-11-05T08:45:51.884Z,94.75
2022-11-05T08:48:19.366Z,94.81
2022-11-05T08:50:48.357Z,94.47
2022-11-05T08:53:15.505Z,94.11
2022-11-05T08:55:43.827Z,93.71
2022-11-05T08:58:12.561Z,92.63
2022-11-05T09:00:39.821Z,91.67
2022-11-05T09:03:09.078Z,91.27
2022-11-05T09:05:39.010Z,89.25
2022-11-05T09:08:06.945Z,89.42
2022-11-05T09:10:33.575Z,89.61
2022-11-05T09:13:00.103Z,88.53
2022-11-05T09:15:27.697Z,86.49
2022-11-05T09:17:55.054Z,82.45
2022-11-05T09:20:22.069Z,76.09
2022-11-05T09:22:48.982Z,71.68
2022-11-05T09:25:15.913Z,72.83
2022-11-05T09:27:42.697Z,71.24
2022-11-05T09:30:10.499Z,69.73
2022-11-05T09:32:36.954Z,65.75
2022-11-05T09:35:04.065Z,67.50
2022-11-05T09:37:30.598Z,63.55
2022-11-05T09:39:57.545Z,61.77
2022-11-05T09:42:29.317Z,57.85
2022-11-05T09:45:05.238Z,58.49
2022-11-05T09:47:40.729Z,58.63
2022-11-05T09:50:13.769Z,60.73
2022-11-05T09:52:41.730Z,60.02
2022-11-05T09:55:19.932Z,59.02
2022-11-05T09:57:54.527Z,57.95
2022-11-05T10:00:21.141Z,60.55
2022-11-05T10:02:55.649Z,66.40
2022-11-05T10:05:24.803Z,68.90
2022-11-05T10:07:55.491Z,69.57
2022-11-05T10:10:40.927Z,73.26
2022-11-05T10:13:34.440Z,74.60
2022-11-05T10:16:07.343Z,75.78
2022-11-05T10:18:39.426Z,76.12
2022-11-05T10:21:07.162Z,78.65
2022-11-05T10:23:34.317Z,80.60
2022-11-05T10:26:05.626Z,79.52
2022-11-05T10:28:34.380Z,79.42
2022-11-05T10:31:08.101Z,79.78
2022-11-05T10:33:48.488Z,76.82
2022-11-05T10:36:24.123Z,78.34
2022-11-05T10:38:51.318Z,76.49
2022-11-05T10:41:24.368Z,76.99
2022-11-05T10:43:54.293Z,76.83
2022-11-05T10:46:38.110Z,76.07
2022-11-05T10:49:30.318Z,76.34
2022-11-05T10:51:59.769Z,78.02
2022-11-05T10:54:33.516Z,76.78
2022-11-05T10:57:00.012Z,77.54
2022-11-05T10:59:29.354Z,78.12
2022-11-05T11:02:03.232Z,79.06
2022-11-05T11:04:36.508Z,79.72
2022-11-05T11:07:04.748Z,79.57
2022-11-05T11:09:35.664Z,78.79
2022-11-05T11:12:16.920Z,76.40
2022-11-05T11:14:59.972Z,78.28
2022-11-05T11:17:32.361Z,77.64
2022-11-05T11:20:30.745Z,77.37
2022-11-05T11:23:04.517Z,78.00
2022-11-05T11:25:41.872Z,73.20
2022-11-05T11:28:19.178Z,75.15
2022-11-05T11:30:52.025Z,72.11
2022-11-05T11:33:23.988Z,72.62
2022-11-05T11:35:50.583Z,72.36
2022-11-05T11:38:17.442Z,72.92
2022-11-05T11:40:45.028Z,73.10
2022-11-05T11:43:25.546Z,73.56
2022-11-05T11:45:54.158Z,76.08
2022-11-05T11:48:30.838Z,74.86
2022-11-05T11:50:58.774Z,74.50
2022-11-05T11:53:35.835Z,72.51
2022-11-05T11:56:12.357Z,75.95
2022-11-05T11:58:40.556Z,72.90
2022-11-05T12:01:19.370Z,73.38
2022-11-05T12:04:33.968Z,74.05
2022-11-05T12:07:28.360Z,72.42
2022-11-05T12:10:11.108Z,74.38
2022-11-05T12:13:01.740Z,75.07
2022-11-05T12:15:37.232Z,72.00
2022-11-05T12:18:06.142Z,72.93
2022-11-05T12:21:06.370Z,72.68
2022-11-05T12:23:48.006Z,72.99
2022-11-05T12:26:32.354Z,72.50
2022-11-05T12:29:19.154Z,69.05
2022-11-05T12:32:13.708Z,70.00
2022-11-05T12:35:11.737Z,68.64
2022-11-05T12:37:54.645Z,68.20
2022-11-05T12:40:36.511Z,70.83
2022-11-05T12:43:19.551Z,71.00
2022-11-05T12:46:13.327Z,71.22
2022-11-05T12:49:05.520Z,70.75
2022-11-05T12:51:41.121Z,70.88
2022-11-05T12:54:37.118Z,72.53
2022-11-05T12:57:05.376Z,71.04
2022-11-05T12:59:37.312Z,71.00
2022-11-05T13:02:25.013Z,72.33
2022-11-05T13:05:00.987Z,71.31
2022-11-05T13:07:35.713Z,73.71
2022-11-05T13:10:10.333Z,72.45
2022-11-05T13:12:39.485Z,73.93
2022-11-05T13:15:26.616Z,73.98
2022-11-05T13:18:04.369Z,74.74
2022-11-05T13:20:38.365Z,74.14
2022-11-05T13:23:16.404Z,75.77
2022-11-05T13:25:50.518Z,75.11
2022-11-05T13:28:24.752Z,76.55
2022-11-05T13:30:54.867Z,75.32
2022-11-05T13:33:25.915Z,75.32
2022-11-05T13:36:23.451Z,75.83
2022-11-05T13:38:59.133Z,74.38
2022-11-05T13:41:38.297Z,74.65
2022-11-05T13:44:29.357Z,75.34
2022-11-05T13:47:11.782Z,75.05
2022-11-05T13:49:51.686Z,71.02
2022-11-05T13:52:41.171Z,70.93
2022-11-05T13:55:36.523Z,69.89
2022-11-05T13:58:30.890Z,69.69
2022-11-05T14:01:31.409Z,70.45
2022-11-05T14:03:58.270Z,68.65
2022-11-05T14:06:30.833Z,69.57
2022-11-05T14:09:01.873Z,68.68
2022-11-05T14:11:32.918Z,68.11
2022-11-05T14:14:06.886Z,70.13
2022-11-05T14:16:53.444Z,70.97
2022-11-05T14:19:19.844Z,70.89
2022-11-05T14:21:52.366Z,71.86
2022-11-05T14:24:21.670Z,73.66
2022-11-05T14:27:00.484Z,73.34
2022-11-05T14:29:41.694Z,74.15
2022-11-05T14:32:17.066Z,74.71
2022-11-05T14:35:21.250Z,76.58
2022-11-05T14:37:55.579Z,76.02
2022-11-05T14:40:21.986Z,75.96
2022-11-05T14:42:54.556Z,76.75
2022-11-05T14:45:30.039Z,78.10
2022-11-05T14:48:05.071Z,77.61
2022-11-05T14:50:42.499Z,79.50
2022-11-05T14:53:33.595Z,79.99
2022-11-05T14:56:04.362Z,81.66
2022-11-05T14:58:42.422Z,82.81
2022-11-05T15:01:15.630Z,82.43
2022-11-05T15:03:46.377Z,82.29
2022-11-05T15:06:31.450Z,81.71
2022-11-05T15:09:00.869Z,82.18
2022-11-05T15:11:27.316Z,82.64
2022-11-05T15:13:53.730Z,82.71
2022-11-05T15:16:30.602Z,82.96
2022-11-05T15:18:58.061Z,82.68
2022-11-05T15:21:25.456Z,84.20
2022-11-05T15:23:56.644Z,84.85
2022-11-05T15:26:39.145Z,85.69
2022-11-05T15:29:16.937Z,86.52
2022-11-05T15:31:45.298Z,86.95
2022-11-05T15:34:20.544Z,87.86
2022-11-05T15:36:53.802Z,88.18
2022-11-05T15:39:48.200Z,88.93
2022-11-05T15:42:17.676Z,89.47
2022-11-05T15:44:49.524Z,89.94
2022-11-05T15:47:24.559Z,90.12
2022-11-05T15:50:03.023Z,90.57
2022-11-05T15:52:36.345Z,91.21
2022-11-05T15:55:07.718Z,91.13
2022-11-05T15:57:39.292Z,91.32
2022-11-05T16:00:16.819Z,91.61
2022-11-05T16:02:49.363Z,92.00
2022-11-05T16:05:15.994Z,92.05
2022-11-05T16:07:47.193Z,92.48
2022-11-05T16:10:24.100Z,92.78
2022-11-05T16:12:50.699Z,92.99
2022-11-05T16:15:23.638Z,92.86
2022-11-05T16:17:53.997Z,92.95
2022-11-05T16:20:29.602Z,93.29
2022-11-05T16:23:03.689Z,93.57
2022-11-05T16:25:41.882Z,93.73
2022-11-05T16:28:28.920Z,93.92
2022-11-05T16:31:02.455Z,94.03
2022-11-05T16:33:39.234Z,94.56
2022-11-05T16:36:07.895Z,94.38
2022-11-05T16:38:34.618Z,94.37
2022-11-05T16:41:01.109Z,94.60
2022-11-05T16:43:27.706Z,94.63
2022-11-05T16:45:57.054Z,94.90
2022-11-05T16:48:24.249Z,95.11
2022-11-05T16:50:51.083Z,95.52
2022-11-05T16:53:17.812Z,95.30
2022-11-05T16:55:45.331Z,95.26
2022-11-05T16:58:23.396Z,95.46
2022-11-05T17:00:52.020Z,95.56
2022-11-05T17:03:18.586Z,96.64
2022-11-05T17:05:45.067Z,97.08
2022-11-05T17:08:11.942Z,96.00
2022-11-05T17:10:38.976Z,96.96
2022-11-05T17:13:05.570Z,95.85
2022-11-05T17:15:35.403Z,95.93
2022-11-05T17:18:03.811Z,97.44
2022-11-05T17:20:41.084Z,96.40
2022-11-05T17:23:10.390Z,96.44
2022-11-05T17:25:37.968Z,96.46
2022-11-05T17:28:05.109Z,96.43
2022-11-05T17:30:31.907Z,96.28
2022-11-05T17:32:58.685Z,96.20
2022-11-05T17:35:25.454Z,96.13
2022-11-05T17:37:52.019Z,96.29
2022-11-05T17:40:21.406Z,96.40
2022-11-05T17:42:48.422Z,96.81
2022-11-05T17:45:15.444Z,96.92
2022-11-05T17:47:42.292Z,96.95
2022-11-05T17:50:11.256Z,97.59
2022-11-05T17:52:38.021Z,97.37
2022-11-05T17:55:08.509Z,97.65
2022-11-05T17:57:34.915Z,97.65
2022-11-05T18:00:01.609Z,97.25
2022-11-05T18:02:29.455Z,98.18
2022-11-05T18:04:56.081Z,98.40
2022-11-05T18:07:22.604Z,98.01
2022-11-05T18:09:49.007Z,97.30
2022-11-05T18:12:15.486Z,97.34
2022-11-05T18:14:41.935Z,97.99
2022-11-05T18:17:08.569Z,97.44
2022-11-05T18:19:38.169Z,97.21
2022-11-05T18:22:04.623Z,97.23
2022-11-05T18:24:32.135Z,97.04
2022-11-05T18:26:58.953Z,97.33
2022-11-05T18:29:25.719Z,97.39
2022-11-05T18:31:52.249Z,97.53
2022-11-05T18:34:18.700Z,98.01
2022-11-05T18:36:45.845Z,97.80
2022-11-05T18:39:12.491Z,97.97
2022-11-05T18:41:39.465Z,98.02
2022-11-05T18:44:06.305Z,98.15
2022-11-05T18:46:57.259Z,98.08
2022-11-05T18:49:20.166Z,98.04
2022-11-05T18:51:46.638Z,98.25
2022-11-05T18:54:13.149Z,98.33
2022-11-05T18:56:45.135Z,98.24
2022-11-05T18:59:35.038Z,98.39
2022-11-05T19:01:59.985Z,98.51
2022-11-05T19:04:26.992Z,98.49
2022-11-05T19:06:53.585Z,98.30
2022-11-05T19:09:20.802Z,98.30
2022-11-05T19:11:47.474Z,98.41
2022-11-05T19:14:14.009Z,98.41
2022-11-05T19:16:40.498Z,98.55
2022-11-05T19:19:07.719Z,98.51
2022-11-05T19:21:34.312Z,98.50
2022-11-05T19:24:03.755Z,98.32
2022-11-05T19:26:30.708Z,98.37
2022-11-05T19:28:59.274Z,98.27
2022-11-05T19:31:26.570Z,98.23
2022-11-05T19:33:53.758Z,98.09
2022-11-05T19:36:22.227Z,98.16
2022-11-05T19:38:53.272Z,98.22
2022-11-05T19:41:21.401Z,98.21
2022-11-05T19:43:48.160Z,98.44
2022-11-05T19:46:18.538Z,98.38
2022-11-05T19:48:45.906Z,98.32
2022-11-05T19:51:21.499Z,98.24
2022-11-05T19:53:48.974Z,98.39
2022-11-05T19:56:20.893Z,98.67
2022-11-05T19:58:47.628Z,98.83
2022-11-05T20:01:15.338Z,98.60
2022-11-05T20:03:42.001Z,98.56
2022-11-05T20:06:14.221Z,98.61
2022-11-05T20:08:59.861Z,98.46
2022-11-05T20:11:29.068Z,98.35
2022-11-05T20:13:56.479Z,98.51
2022-11-05T20:16:26.223Z,98.78
2022-11-05T20:18:53.377Z,98.93
2022-11-05T20:21:20.131Z,98.67
2022-11-05T20:23:47.564Z,98.69
2022-11-05T20:26:14.893Z,98.54
2022-11-05T20:28:43.572Z,98.82
2022-11-05T20:31:15.245Z,98.86
2022-11-05T20:33:42.567Z,98.77
2022-11-05T20:36:13.004Z,98.78
2022-11-05T20:38:39.642Z,98.92
2022-11-05T20:41:09.246Z,99.05
2022-11-05T20:43:37.054Z,99.11
2022-11-05T20:46:04.220Z,99.18
2022-11-05T20:48:32.560Z,98.89
2022-11-05T20:50:59.261Z,99.14
2022-11-05T20:53:25.959Z,99.45
2022-11-05T20:55:52.389Z,99.39
2022-11-05T20:58:19.018Z,99.22
2022-11-05T21:00:54.211Z,99.18
2022-11-05T21:03:21.354Z,99.27
2022-11-05T21:05:50.163Z,99.13
2022-11-05T21:08:16.763Z,99.16
2022-11-05T21:10:50.044Z,99.30
2022-11-05T21:13:18.242Z,99.38
2022-11-05T21:15:50.211Z,99.14
2022-11-05T21:18:18.093Z,99.14
2022-11-05T21:20:46.806Z,99.36
2022-11-05T21:23:14.657Z,99.28
2022-11-05T21:25:42.715Z,99.33
2022-11-05T21:28:11.210Z,99.39
2022-11-05T21:30:41.604Z,99.42
2022-11-05T21:33:09.151Z,99.36
2022-11-05T21:35:40.939Z,99.34
2022-11-05T21:38:07.707Z,99.37
2022-11-05T21:40:34.429Z,99.52
2022-11-05T21:43:00.892Z,99.36
2022-11-05T21:45:27.714Z,99.33
2022-11-05T21:47:54.178Z,99.48
2022-11-05T21:50:40.681Z,99.33
2022-11-05T21:53:31.426Z,99.43
2022-11-05T21:56:16.800Z,99.34
2022-11-05T21:59:02.061Z,99.42
2022-11-05T22:01:29.094Z,99.78
2022-11-05T22:04:00.306Z,99.58
2022-11-05T22:06:31.589Z,99.64
2022-11-05T22:08:58.082Z,99.77
2022-11-05T22:11:24.511Z,99.64
2022-11-05T22:13:52.730Z,99.79
2022-11-05T22:16:19.179Z,99.70
2022-11-05T22:18:45.671Z,99.88
2022-11-05T22:21:17.928Z,99.96
2022-11-05T22:23:44.556Z,99.84
2022-11-05T22:26:10.984Z,99.73
2022-11-05T22:28:37.434Z,99.77
2022-11-05T22:31:03.846Z,99.85
2022-11-05T22:33:31.062Z,99.87
2022-11-05T22:35:57.687Z,99.79
2022-11-05T22:38:24.242Z,99.80
2022-11-05T22:40:50.718Z,99.98
2022-11-05T22:43:17.169Z,99.96
2022-11-05T22:45:43.761Z,99.99
2022-11-05T22:48:10.768Z,99.99
2022-11-05T22:50:38.067Z,99.99
2022-11-05T22:53:04.800Z,99.99
2022-11-05T22:55:31.343Z,99.99
2022-11-05T22:57:57.758Z,99.99
2022-11-05T23:00:35.867Z,99.99
2022-11-05T23:03:02.971Z,99.99
2022-11-05T23:05:29.947Z,99.99
2022-11-05T23:08:15.672Z,99.99
2022-11-05T23:11:00.737Z,99.99
2022-11-05T23:13:27.369Z,99.99
2022-11-05T23:16:12.467Z,99.99
2022-11-05T23:18:57.339Z,99.99
2022-11-05T23:21:44.103Z,99.99
2022-11-05T23:24:12.775Z,99.99
2022-11-05T23:26:51.923Z,99.99
2022-11-05T23:29:24.082Z,99.99
2022-11-05T23:32:09.877Z,99.99
2022-11-05T23:34:36.660Z,99.99
2022-11-05T23:37:22.334Z,99.99
2022-11-05T23:39:48.934Z,99.99
2022-11-05T23:42:34.021Z,99.99
2022-11-05T23:45:18.923Z,99.99
2022-11-05T23:48:04.394Z,99.99
2022-11-05T23:50:35.667Z,99.99
2022-11-05T23:53:06.678Z,99.99
2022-11-05T23:55:33.165Z,99.99
2022-11-05T23:57:59.585Z,99.99
